createdAt,value
2023-01-02T00:01:09.475Z,13.15
2023-01-02T00:03:37.283Z,15.18
2023-01-02T00:06:06.368Z,13.60
2023-01-02T00:08:34.246Z,8.20
2023-01-02T00:11:01.925Z,11.30
2023-01-02T00:13:29.777Z,16.75
2023-01-02T00:15:57.505Z,13.70
2023-01-02T00:18:25.214Z,16.25
2023-01-02T00:20:52.886Z,17.50
2023-01-02T00:23:20.504Z,16.30
2023-01-02T00:25:49.315Z,12.85
2023-01-02T00:28:17.149Z,14.38
2023-01-02T00:30:44.823Z,13.90
2023-01-02T00:33:12.466Z,11.15
2023-01-02T00:35:40.138Z,13.82
2023-01-02T00:38:08.052Z,13.13
2023-01-02T00:40:35.731Z,15.95
2023-01-02T00:43:03.981Z,13.57
2023-01-02T00:45:32.533Z,15.23
2023-01-02T00:48:00.212Z,13.57
2023-01-02T00:50:27.901Z,13.18
2023-01-02T00:52:55.591Z,9.20
2023-01-02T00:55:23.194Z,8.38
2023-01-02T00:57:50.833Z,8.43
2023-01-02T01:00:23.928Z,9.27
2023-01-02T01:02:58.727Z,12.05
2023-01-02T01:05:27.429Z,8.50
2023-01-02T01:07:56.590Z,6.57
2023-01-02T01:10:26.135Z,6.97
2023-01-02T01:12:53.871Z,13.93
2023-01-02T01:15:21.509Z,11.57
2023-01-02T01:17:49.179Z,17.35
2023-01-02T01:20:16.896Z,10.88
2023-01-02T01:22:44.567Z,13.27
2023-01-02T01:25:12.240Z,8.43
2023-01-02T01:27:39.947Z,8.38
2023-01-02T01:30:08.534Z,10.90
2023-01-02T01:32:36.214Z,7.80
2023-01-02T01:35:03.944Z,10.02
2023-01-02T01:37:31.570Z,7.47
2023-01-02T01:39:59.251Z,6.45
2023-01-02T01:42:33.469Z,6.80
2023-01-02T01:45:01.285Z,5.93
2023-01-02T01:47:42.842Z,7.95
2023-01-02T01:50:20.130Z,8.30
2023-01-02T01:53:01.060Z,7.80
2023-01-02T01:55:36.641Z,8.30
2023-01-02T01:58:07.891Z,7.93
2023-01-02T02:00:35.890Z,4.53
2023-01-02T02:03:11.299Z,8.45
2023-01-02T02:05:40.784Z,6.53
2023-01-02T02:08:14.149Z,6.38
2023-01-02T02:10:42.770Z,8.63
2023-01-02T02:13:10.897Z,7.55
2023-01-02T02:16:10.233Z,6.13
2023-01-02T02:19:01.971Z,7.55
2023-01-02T02:21:42.442Z,7.25
2023-01-02T02:24:12.784Z,3.80
2023-01-02T02:27:07.259Z,6.55
2023-01-02T02:30:18.790Z,6.68
2023-01-02T02:33:04.998Z,8.57
2023-01-02T02:35:40.343Z,8.88
2023-01-02T02:38:19.833Z,8.43
2023-01-02T02:41:11.586Z,4.68
2023-01-02T02:44:00.369Z,10.13
2023-01-02T02:46:40.008Z,7.65
2023-01-02T02:49:21.477Z,8.63
2023-01-02T02:52:14.048Z,5.28
2023-01-02T02:54:54.216Z,6.82
2023-01-02T02:57:23.215Z,8.63
2023-01-02T02:59:51.294Z,7.90
2023-01-02T03:02:19.640Z,6.80
2023-01-02T03:04:53.755Z,4.90
2023-01-02T03:07:31.978Z,6.70
2023-01-02T03:10:21.156Z,8.38
2023-01-02T03:13:01.839Z,7.88
2023-01-02T03:15:35.510Z,4.93
2023-01-02T03:18:30.991Z,7.28
2023-01-02T03:21:12.937Z,6.32
2023-01-02T03:23:46.973Z,9.52
2023-01-02T03:26:18.190Z,7.80
2023-01-02T03:28:48.951Z,9.60
2023-01-02T03:31:21.540Z,12.35
2023-01-02T03:33:54.616Z,11.25
2023-01-02T03:36:26.603Z,10.95
2023-01-02T03:39:15.097Z,6.85
2023-01-02T03:41:56.660Z,10.07
2023-01-02T03:44:31.184Z,14.70
2023-01-02T03:47:37.123Z,14.23
2023-01-02T03:50:14.023Z,10.13
2023-01-02T03:52:41.840Z,11.85
2023-01-02T03:55:10.036Z,13.80
2023-01-02T03:58:10.980Z,13.45
2023-01-02T04:00:56.328Z,9.50
2023-01-02T04:03:31.730Z,14.65
2023-01-02T04:06:15.706Z,15.35
2023-01-02T04:09:19.173Z,13.70
2023-01-02T04:11:51.425Z,14.02
2023-01-02T04:14:24.087Z,13.57
2023-01-02T04:16:54.380Z,13.75
2023-01-02T04:19:26.700Z,21.42
2023-01-02T04:21:58.343Z,15.85
2023-01-02T04:24:33.462Z,13.18
2023-01-02T04:27:20.381Z,12.75
2023-01-02T04:29:48.124Z,12.52
2023-01-02T04:32:44.918Z,18.80
2023-01-02T04:35:17.576Z,11.77
2023-01-02T04:37:45.709Z,15.35
2023-01-02T04:40:24.785Z,12.15
2023-01-02T04:42:52.799Z,11.10
2023-01-02T04:45:20.743Z,10.80
2023-01-02T04:47:48.987Z,13.35
2023-01-02T04:50:17.237Z,12.85
2023-01-02T04:52:45.069Z,10.80
2023-01-02T04:55:12.809Z,10.80
2023-01-02T04:57:40.452Z,18.13
2023-01-02T05:00:09.637Z,19.42
2023-01-02T05:02:39.094Z,13.90
2023-01-02T05:05:08.428Z,12.02
2023-01-02T05:07:37.035Z,12.07
2023-01-02T05:10:05.949Z,15.60
2023-01-02T05:12:35.187Z,9.93
2023-01-02T05:15:04.302Z,13.20
2023-01-02T05:17:40.026Z,14.50
2023-01-02T05:20:11.092Z,15.38
2023-01-02T05:22:58.357Z,14.57
2023-01-02T05:25:26.585Z,10.25
2023-01-02T05:27:55.267Z,9.32
2023-01-02T05:30:23.754Z,10.38
2023-01-02T05:32:51.580Z,13.40
2023-01-02T05:35:19.298Z,13.90
2023-01-02T05:37:46.951Z,10.20
2023-01-02T05:40:14.821Z,10.93
2023-01-02T05:42:42.623Z,18.33
2023-01-02T05:45:10.389Z,10.68
2023-01-02T05:47:39.013Z,13.23
2023-01-02T05:50:07.556Z,12.98
2023-01-02T05:52:38.749Z,11.10
2023-01-02T05:55:09.517Z,16.83
2023-01-02T05:57:37.196Z,6.22
2023-01-02T06:00:05.091Z,10.85
2023-01-02T06:02:44.361Z,11.35
2023-01-02T06:05:16.228Z,9.23
2023-01-02T06:07:44.108Z,8.80
2023-01-02T06:10:11.767Z,10.68
2023-01-02T06:12:39.399Z,8.80
2023-01-02T06:15:07.643Z,12.80
2023-01-02T06:17:35.258Z,11.57
2023-01-02T06:20:02.908Z,12.23
2023-01-02T06:22:31.066Z,14.15
2023-01-02T06:24:58.762Z,9.60
2023-01-02T06:27:26.415Z,7.28
2023-01-02T06:29:54.028Z,11.57
2023-01-02T06:32:21.701Z,10.77
2023-01-02T06:34:49.299Z,8.13
2023-01-02T06:37:16.968Z,8.82
2023-01-02T06:39:44.650Z,8.30
2023-01-02T06:42:12.481Z,7.38
2023-01-02T06:44:40.102Z,4.70
2023-01-02T06:47:08.739Z,15.57
2023-01-02T06:49:36.357Z,8.65
2023-01-02T06:52:04.151Z,11.15
2023-01-02T06:54:32.915Z,11.20
2023-01-02T06:57:00.796Z,14.13
2023-01-02T06:59:28.529Z,11.93
2023-01-02T07:01:56.232Z,7.82
2023-01-02T07:04:23.873Z,9.27
2023-01-02T07:06:51.555Z,10.88
2023-01-02T07:09:19.282Z,16.95
2023-01-02T07:11:46.941Z,10.48
2023-01-02T07:14:14.620Z,9.20
2023-01-02T07:16:42.310Z,7.00
2023-01-02T07:19:10.062Z,11.23
2023-01-02T07:21:37.772Z,11.43
2023-01-02T07:24:05.787Z,11.90
2023-01-02T07:26:33.423Z,9.82
2023-01-02T07:29:01.063Z,7.47
2023-01-02T07:31:30.243Z,10.95
2023-01-02T07:33:59.123Z,9.23
2023-01-02T07:36:26.799Z,12.55
2023-01-02T07:38:57.627Z,11.75
2023-01-02T07:41:26.507Z,9.98
2023-01-02T07:43:58.427Z,11.90
2023-01-02T07:46:26.104Z,10.90
2023-01-02T07:48:53.802Z,10.35
2023-01-02T07:51:26.998Z,13.57
2023-01-02T07:53:56.633Z,16.38
2023-01-02T07:56:25.690Z,7.30
2023-01-02T07:58:53.392Z,14.30
2023-01-02T08:01:21.388Z,13.57
2023-01-02T08:03:49.314Z,13.35
2023-01-02T08:06:31.588Z,20.95
2023-01-02T08:09:03.482Z,13.95
2023-01-02T08:12:07.080Z,15.27
2023-01-02T08:14:42.236Z,13.15
2023-01-02T08:17:13.378Z,14.23
2023-01-02T08:20:07.286Z,7.35
2023-01-02T08:22:41.637Z,14.75
2023-01-02T08:25:12.199Z,11.63
2023-01-02T08:30:24.999Z,10.40
2023-01-02T08:35:50.981Z,8.45
2023-01-02T08:41:58.406Z,15.05
2023-01-02T08:45:08.718Z,18.48
2023-01-02T08:48:22.513Z,7.47
2023-01-02T08:51:19.679Z,12.45
2023-01-02T08:54:08.026Z,8.32
2023-01-02T09:00:17.404Z,12.18
2023-01-02T09:02:50.714Z,11.02
2023-01-02T09:09:01.385Z,10.23
2023-01-02T09:12:05.458Z,11.65
2023-01-02T09:19:11.667Z,9.93
2023-01-02T09:22:06.052Z,12.98
2023-01-02T09:25:18.882Z,13.48
2023-01-02T09:28:33.358Z,14.77
2023-01-02T09:34:56.622Z,9.40
2023-01-02T09:37:43.225Z,9.65
2023-01-02T09:44:11.285Z,9.15
2023-01-02T09:47:32.344Z,13.32
2023-01-02T09:50:48.612Z,12.02
2023-01-02T09:58:51.814Z,13.20
2023-01-02T10:01:38.089Z,7.25
2023-01-02T10:05:21.215Z,10.40
2023-01-02T11:33:41.876Z,13.40
2023-01-02T11:36:12.661Z,7.80
2023-01-02T11:38:59.581Z,9.35
2023-01-02T11:41:49.345Z,6.28
2023-01-02T11:44:26.652Z,10.30
2023-01-02T11:46:58.263Z,10.13
2023-01-02T11:49:38.907Z,7.47
2023-01-02T11:52:11.035Z,10.75
2023-01-02T11:55:01.059Z,11.55
2023-01-02T11:57:55.657Z,10.50
2023-01-02T12:00:39.644Z,9.77
2023-01-02T12:03:37.683Z,6.40
2023-01-02T12:06:23.964Z,6.28
2023-01-02T12:09:03.706Z,4.10
2023-01-02T12:11:37.662Z,6.82
2023-01-02T12:14:21.905Z,4.03
2023-01-02T12:17:09.452Z,5.57
2023-01-02T12:20:08.139Z,9.05
2023-01-02T12:23:18.694Z,7.70
2023-01-02T12:26:11.764Z,6.10
2023-01-02T12:28:55.804Z,6.18
2023-01-02T12:31:29.953Z,7.55
2023-01-02T12:34:55.121Z,6.97
2023-01-02T12:37:40.657Z,5.20
2023-01-02T12:40:53.308Z,3.67
2023-01-02T12:48:10.158Z,4.88
2023-01-02T12:50:46.897Z,3.63
2023-01-02T12:53:43.785Z,5.72
2023-01-02T12:56:43.628Z,8.27
2023-01-02T12:59:26.377Z,6.90
2023-01-02T13:02:27.499Z,22.15
2023-01-02T13:05:15.674Z,9.43
2023-01-02T13:08:17.774Z,15.00
2023-01-02T13:10:47.823Z,7.78
2023-01-02T13:13:23.563Z,8.85
2023-01-02T13:16:24.367Z,12.50
2023-01-02T13:19:08.450Z,8.98
2023-01-02T13:21:53.039Z,6.53
2023-01-02T13:24:32.775Z,7.65
2023-01-02T13:27:05.876Z,9.07
2023-01-02T13:29:46.022Z,10.15
2023-01-02T13:32:36.899Z,4.32
2023-01-02T13:44:18.068Z,2.83
2023-01-02T13:47:24.532Z,5.57
2023-01-02T13:51:39.239Z,7.35
2023-01-02T13:54:54.039Z,4.32
2023-01-02T14:03:45.401Z,7.32
2023-01-02T14:06:41.566Z,5.60
2023-01-02T14:09:27.369Z,9.73
2023-01-02T14:12:05.391Z,8.40
2023-01-02T14:14:39.121Z,6.47
2023-01-02T14:17:21.411Z,6.13
2023-01-02T14:20:24.923Z,4.75
2023-01-02T14:24:16.789Z,6.60
2023-01-02T14:26:40.404Z,4.67
2023-01-02T14:29:16.178Z,4.53
2023-01-02T14:31:44.385Z,8.88
2023-01-02T14:34:25.388Z,3.03
2023-01-02T14:36:55.846Z,9.35
2023-01-02T14:39:27.099Z,5.40
2023-01-02T14:42:13.652Z,8.45
2023-01-02T14:44:51.746Z,3.40
2023-01-02T14:47:43.365Z,7.55
2023-01-02T14:50:24.919Z,6.97
2023-01-02T14:53:20.693Z,6.63
2023-01-02T14:55:52.050Z,3.22
2023-01-02T14:58:29.959Z,5.53
2023-01-02T15:01:05.064Z,5.15
2023-01-02T15:03:57.561Z,6.22
2023-01-02T15:06:39.384Z,7.13
2023-01-02T15:09:34.856Z,5.43
2023-01-02T15:12:50.538Z,3.40
2023-01-02T15:15:28.215Z,6.32
2023-01-02T15:18:20.448Z,6.30
2023-01-02T15:21:03.224Z,4.57
2023-01-02T15:23:48.430Z,5.47
2023-01-02T16:26:31.112Z,57.08
2023-01-02T17:06:42.710Z,15.80
2023-01-02T17:09:10.704Z,11.57
2023-01-02T17:11:59.004Z,14.00
2023-01-02T17:14:28.240Z,14.88
2023-01-02T17:16:57.450Z,12.95
2023-01-02T17:19:25.567Z,13.93
2023-01-02T17:21:53.569Z,16.10
2023-01-02T17:24:21.790Z,12.57
2023-01-02T17:26:49.720Z,13.82
2023-01-02T17:29:18.638Z,28.90
2023-01-02T17:31:46.325Z,26.25
2023-01-02T17:34:14.221Z,25.33
2023-01-02T17:36:42.745Z,29.83
2023-01-02T17:39:10.601Z,25.15
2023-01-02T17:41:41.304Z,27.27
2023-01-02T17:44:09.231Z,26.60
2023-01-02T17:49:25.017Z,27.00
2023-01-02T17:51:53.001Z,25.55
2023-01-02T17:54:20.937Z,26.25
2023-01-02T17:56:52.061Z,22.40
2023-01-02T17:59:19.910Z,29.20
2023-01-02T18:01:48.203Z,29.38
2023-01-02T18:04:16.160Z,22.38
2023-01-02T18:06:44.079Z,26.98
2023-01-02T18:09:12.352Z,21.52
2023-01-02T18:11:40.006Z,24.45
2023-01-02T18:14:28.317Z,24.60
2023-01-02T18:16:57.529Z,26.92
2023-01-02T18:19:36.579Z,26.73
2023-01-02T18:22:16.330Z,21.05
2023-01-02T18:24:45.924Z,28.60
2023-01-02T18:27:13.753Z,21.83
2023-01-02T18:30:11.767Z,20.77
2023-01-02T18:32:42.809Z,25.25
2023-01-02T18:35:55.628Z,25.73
2023-01-02T18:38:27.662Z,22.05
2023-01-02T18:40:55.504Z,21.65
2023-01-02T18:43:28.942Z,22.90
2023-01-02T18:46:00.218Z,22.60
2023-01-02T18:48:31.191Z,23.75
2023-01-02T18:51:01.496Z,24.95
2023-01-02T18:53:35.138Z,26.98
2023-01-02T18:56:16.259Z,26.58
2023-01-02T18:58:57.050Z,25.88
2023-01-02T19:01:28.940Z,22.30
2023-01-02T19:04:28.391Z,20.75
2023-01-02T19:06:59.907Z,21.40
2023-01-02T19:09:33.939Z,22.50
2023-01-02T19:12:44.195Z,26.02
2023-01-02T19:15:46.432Z,25.65
2023-01-02T19:18:14.129Z,26.98
2023-01-02T19:20:43.456Z,24.17
2023-01-02T19:23:28.423Z,25.63
2023-01-02T19:26:01.548Z,29.92
2023-01-02T19:28:33.412Z,25.52
2023-01-02T19:31:01.121Z,29.25
2023-01-02T19:33:42.308Z,29.30
2023-01-02T19:36:25.177Z,31.38
2023-01-02T19:38:53.072Z,28.17
2023-01-02T19:41:40.752Z,29.00
2023-01-02T19:44:08.983Z,26.92
2023-01-02T19:46:37.096Z,24.70
2023-01-02T19:49:05.413Z,26.90
2023-01-02T19:51:33.385Z,27.10
2023-01-02T19:54:04.221Z,27.10
2023-01-02T19:56:32.480Z,28.15
2023-01-02T19:59:03.574Z,25.38
2023-01-02T20:01:31.710Z,26.50
2023-01-02T20:03:59.631Z,27.80
2023-01-02T20:06:28.679Z,27.95
2023-01-02T20:08:56.633Z,33.75
2023-01-02T20:11:43.000Z,27.60
2023-01-02T20:14:11.118Z,31.33
2023-01-02T20:16:38.983Z,26.88
2023-01-02T20:19:10.489Z,26.70
2023-01-02T20:21:40.866Z,26.58
2023-01-02T20:24:08.705Z,24.95
2023-01-02T20:26:36.539Z,25.77
2023-01-02T20:29:05.327Z,26.20
2023-01-02T20:31:33.329Z,29.25
2023-01-02T20:34:02.393Z,28.58
2023-01-02T20:36:33.326Z,29.85
2023-01-02T20:39:03.730Z,27.85
2023-01-02T20:41:34.990Z,35.15
2023-01-02T20:44:02.888Z,30.95
2023-01-02T20:46:31.422Z,31.05
2023-01-02T20:48:59.579Z,29.52
2023-01-02T20:51:28.049Z,31.63
2023-01-02T20:53:56.032Z,32.97
2023-01-02T20:56:23.695Z,36.63
2023-01-02T20:58:51.937Z,38.58
2023-01-02T21:01:20.881Z,37.90
2023-01-02T21:03:49.434Z,36.03
2023-01-02T21:06:17.647Z,44.05
2023-01-02T21:08:45.614Z,40.17
2023-01-02T21:11:13.400Z,41.00
2023-01-02T21:13:41.134Z,39.47
2023-01-02T21:16:26.298Z,37.03
2023-01-02T21:18:54.165Z,44.05
2023-01-02T21:21:22.285Z,49.20
2023-01-02T21:23:53.606Z,41.50
2023-01-02T21:26:26.353Z,33.72
2023-01-02T21:28:54.257Z,33.00
2023-01-02T21:31:22.286Z,38.25
2023-01-02T21:33:53.067Z,42.15
2023-01-02T21:36:21.232Z,43.35
2023-01-02T21:38:49.001Z,47.53
2023-01-02T21:41:36.313Z,50.55
2023-01-02T21:44:04.470Z,49.65
2023-01-02T21:46:32.310Z,51.72
2023-01-02T21:49:00.179Z,53.50
2023-01-02T21:51:32.672Z,49.58
2023-01-02T21:54:01.305Z,52.08
2023-01-02T21:56:29.355Z,49.60
2023-01-02T21:58:58.871Z,51.50
2023-01-02T22:01:26.782Z,52.17
2023-01-02T22:03:57.442Z,54.95
2023-01-02T22:08:53.502Z,51.75
2023-01-02T22:11:39.865Z,49.25
2023-01-02T22:14:07.705Z,47.13
2023-01-02T22:16:35.486Z,48.92
2023-01-02T22:19:03.332Z,42.30
2023-01-02T22:21:31.573Z,48.22
2023-01-02T22:23:59.266Z,44.00
2023-01-02T22:26:27.321Z,43.40
2023-01-02T22:28:56.806Z,38.88
2023-01-02T22:31:24.941Z,39.90
2023-01-02T22:33:55.746Z,40.08
2023-01-02T22:36:24.605Z,42.05
2023-01-02T22:39:25.700Z,43.33
2023-01-02T22:41:42.419Z,42.97
2023-01-02T22:44:32.093Z,37.75
2023-01-02T22:46:59.929Z,36.88
2023-01-02T22:49:30.708Z,35.50
2023-01-02T22:52:07.022Z,32.40
2023-01-02T22:54:35.250Z,42.60
2023-01-02T22:57:05.540Z,35.38
2023-01-02T22:59:33.205Z,36.85
2023-01-02T23:02:00.931Z,37.03
2023-01-02T23:04:28.829Z,36.90
2023-01-02T23:09:44.380Z,33.72
2023-01-02T23:12:12.503Z,35.42
2023-01-02T23:14:40.521Z,30.55
2023-01-02T23:17:29.720Z,38.25
2023-01-02T23:19:57.607Z,31.25
2023-01-02T23:22:25.526Z,38.50
2023-01-02T23:24:53.250Z,38.58
2023-01-02T23:27:20.979Z,33.92
2023-01-02T23:29:48.789Z,34.25
2023-01-02T23:32:16.720Z,34.30
2023-01-02T23:34:44.591Z,37.75
2023-01-02T23:37:12.308Z,32.95
2023-01-02T23:39:40.128Z,33.85
2023-01-02T23:42:07.893Z,37.97
2023-01-02T23:44:35.901Z,41.10
2023-01-02T23:47:09.015Z,38.35
2023-01-02T23:49:38.578Z,30.00
2023-01-02T23:52:06.344Z,28.58
2023-01-02T23:54:34.224Z,27.38
2023-01-02T23:57:02.240Z,27.25
2023-01-02T23:59:29.952Z,25.95
